sensor_id;sensor_type;location;lat;lon;timestamp;pressure;altitude;pressure_sealevel;temperature;humidity
78016;BME280;67223;51.102;5.882;2023-04-15T00:00:15;100560.38;;;7.04;68.01
78016;BME280;67223;51.102;5.882;2023-04-15T00:02:41;100557.44;;;6.83;68.64
78016;BME280;67223;51.102;5.882;2023-04-15T00:05:07;100555.34;;;6.75;68.55
78016;BME280;67223;51.102;5.882;2023-04-15T00:07:32;100558.22;;;6.72;68.96
78016;BME280;67223;51.102;5.882;2023-04-15T00:09:58;100550.78;;;6.77;68.93
78016;BME280;67223;51.102;5.882;2023-04-15T00:12:24;100552.78;;;6.86;68.08
78016;BME280;67223;51.102;5.882;2023-04-15T00:14:52;100558.38;;;6.95;67.46
78016;BME280;67223;51.102;5.882;2023-04-15T00:17:17;100557.00;;;7.02;66.46
78016;BME280;67223;51.102;5.882;2023-04-15T00:19:43;100557.81;;;7.15;65.73
78016;BME280;67223;51.102;5.882;2023-04-15T00:22:11;100562.84;;;7.07;66.80
78016;BME280;67223;51.102;5.882;2023-04-15T00:24:37;100567.41;;;7.05;65.27
78016;BME280;67223;51.102;5.882;2023-04-15T00:27:03;100561.59;;;6.87;65.83
78016;BME280;67223;51.102;5.882;2023-04-15T00:29:29;100561.56;;;7.00;66.15
78016;BME280;67223;51.102;5.882;2023-04-15T00:31:55;100561.47;;;6.88;65.72
78016;BME280;67223;51.102;5.882;2023-04-15T00:34:22;100563.25;;;7.01;65.83
78016;BME280;67223;51.102;5.882;2023-04-15T00:36:47;100557.84;;;6.89;66.42
78016;BME280;67223;51.102;5.882;2023-04-15T00:39:13;100559.13;;;6.97;67.51
78016;BME280;67223;51.102;5.882;2023-04-15T00:41:38;100562.88;;;6.81;67.29
78016;BME280;67223;51.102;5.882;2023-04-15T00:44:07;100558.09;;;6.86;67.48
78016;BME280;67223;51.102;5.882;2023-04-15T00:46:34;100562.50;;;6.99;67.15
78016;BME280;67223;51.102;5.882;2023-04-15T00:49:03;100560.28;;;7.05;66.84
78016;BME280;67223;51.102;5.882;2023-04-15T00:51:28;100559.44;;;7.05;66.70
78016;BME280;67223;51.102;5.882;2023-04-15T00:53:55;100555.63;;;6.96;67.12
78016;BME280;67223;51.102;5.882;2023-04-15T00:56:20;100552.13;;;6.96;66.79
78016;BME280;67223;51.102;5.882;2023-04-15T00:58:49;100556.34;;;7.11;66.23
78016;BME280;67223;51.102;5.882;2023-04-15T01:01:15;100556.91;;;6.90;67.19
78016;BME280;67223;51.102;5.882;2023-04-15T01:03:41;100559.59;;;6.65;68.63
78016;BME280;67223;51.102;5.882;2023-04-15T01:06:07;100553.97;;;6.32;69.96
78016;BME280;67223;51.102;5.882;2023-04-15T01:08:32;100564.03;;;6.27;70.56
78016;BME280;67223;51.102;5.882;2023-04-15T01:11:00;100558.06;;;6.23;70.24
78016;BME280;67223;51.102;5.882;2023-04-15T01:13:26;100557.03;;;6.51;69.32
78016;BME280;67223;51.102;5.882;2023-04-15T01:15:52;100550.47;;;6.57;69.22
78016;BME280;67223;51.102;5.882;2023-04-15T01:18:18;100555.88;;;6.55;69.16
78016;BME280;67223;51.102;5.882;2023-04-15T01:20:44;100548.13;;;6.77;68.82
78016;BME280;67223;51.102;5.882;2023-04-15T01:23:10;100567.44;;;6.92;68.28
78016;BME280;67223;51.102;5.882;2023-04-15T01:25:35;100558.19;;;6.85;67.59
78016;BME280;67223;51.102;5.882;2023-04-15T01:28:01;100557.66;;;6.80;68.44
78016;BME280;67223;51.102;5.882;2023-04-15T01:30:27;100551.09;;;6.60;69.33
78016;BME280;67223;51.102;5.882;2023-04-15T01:32:52;100547.44;;;6.23;70.47
78016;BME280;67223;51.102;5.882;2023-04-15T01:35:19;100547.13;;;6.02;71.21
78016;BME280;67223;51.102;5.882;2023-04-15T01:37:45;100553.22;;;5.90;71.43
78016;BME280;67223;51.102;5.882;2023-04-15T01:40:11;100548.84;;;6.16;70.88
78016;BME280;67223;51.102;5.882;2023-04-15T01:42:38;100555.00;;;6.17;70.84
78016;BME280;67223;51.102;5.882;2023-04-15T01:45:03;100549.78;;;6.15;70.41
78016;BME280;67223;51.102;5.882;2023-04-15T01:47:29;100548.31;;;6.11;70.85
78016;BME280;67223;51.102;5.882;2023-04-15T01:49:54;100546.59;;;6.23;70.54
78016;BME280;67223;51.102;5.882;2023-04-15T01:52:20;100545.56;;;6.13;71.72
78016;BME280;67223;51.102;5.882;2023-04-15T01:54:45;100551.25;;;6.07;71.23
78016;BME280;67223;51.102;5.882;2023-04-15T01:57:11;100553.56;;;5.98;71.94
78016;BME280;67223;51.102;5.882;2023-04-15T01:59:36;100555.47;;;5.96;72.28
78016;BME280;67223;51.102;5.882;2023-04-15T02:02:02;100554.56;;;6.10;71.75
78016;BME280;67223;51.102;5.882;2023-04-15T02:04:28;100551.38;;;6.18;70.76
78016;BME280;67223;51.102;5.882;2023-04-15T02:06:54;100544.50;;;6.40;70.23
78016;BME280;67223;51.102;5.882;2023-04-15T02:09:19;100547.34;;;6.12;70.69
78016;BME280;67223;51.102;5.882;2023-04-15T02:11:45;100556.34;;;6.10;71.30
78016;BME280;67223;51.102;5.882;2023-04-15T02:14:10;100565.69;;;6.02;71.72
78016;BME280;67223;51.102;5.882;2023-04-15T02:16:36;100562.94;;;6.29;71.19
78016;BME280;67223;51.102;5.882;2023-04-15T02:19:01;100558.19;;;6.22;71.11
78016;BME280;67223;51.102;5.882;2023-04-15T02:21:28;100555.94;;;6.28;70.11
78016;BME280;67223;51.102;5.882;2023-04-15T02:23:53;100549.19;;;6.37;69.79
78016;BME280;67223;51.102;5.882;2023-04-15T02:26:19;100556.69;;;6.43;69.28
78016;BME280;67223;51.102;5.882;2023-04-15T02:28:46;100554.03;;;6.43;69.31
78016;BME280;67223;51.102;5.882;2023-04-15T02:31:11;100561.81;;;6.46;69.36
78016;BME280;67223;51.102;5.882;2023-04-15T02:33:36;100556.91;;;6.40;69.68
78016;BME280;67223;51.102;5.882;2023-04-15T02:36:03;100559.56;;;6.40;69.39
78016;BME280;67223;51.102;5.882;2023-04-15T02:38:28;100559.78;;;6.37;69.40
78016;BME280;67223;51.102;5.882;2023-04-15T02:40:55;100554.06;;;6.30;69.89
78016;BME280;67223;51.102;5.882;2023-04-15T02:43:21;100549.59;;;6.31;69.40
78016;BME280;67223;51.102;5.882;2023-04-15T02:45:47;100555.34;;;6.50;69.39
78016;BME280;67223;51.102;5.882;2023-04-15T02:48:12;100559.97;;;6.21;70.67
78016;BME280;67223;51.102;5.882;2023-04-15T02:50:38;100557.34;;;6.21;69.58
78016;BME280;67223;51.102;5.882;2023-04-15T02:53:05;100559.09;;;6.08;70.85
78016;BME280;67223;51.102;5.882;2023-04-15T02:55:30;100571.56;;;5.93;71.74
78016;BME280;67223;51.102;5.882;2023-04-15T02:57:56;100572.66;;;6.03;71.25
78016;BME280;67223;51.102;5.882;2023-04-15T03:03:04;100580.69;;;5.89;71.09
78016;BME280;67223;51.102;5.882;2023-04-15T03:05:31;100580.13;;;6.11;71.19
78016;BME280;67223;51.102;5.882;2023-04-15T03:07:56;100581.78;;;5.99;70.78
78016;BME280;67223;51.102;5.882;2023-04-15T03:10:21;100587.75;;;6.16;70.38
78016;BME280;67223;51.102;5.882;2023-04-15T03:12:47;100589.88;;;6.23;70.36
78016;BME280;67223;51.102;5.882;2023-04-15T03:15:13;100578.78;;;5.91;71.25
78016;BME280;67223;51.102;5.882;2023-04-15T03:17:38;100578.81;;;6.04;70.85
78016;BME280;67223;51.102;5.882;2023-04-15T03:20:05;100575.28;;;5.91;71.35
78016;BME280;67223;51.102;5.882;2023-04-15T03:22:31;100579.66;;;5.92;71.74
78016;BME280;67223;51.102;5.882;2023-04-15T03:24:56;100595.28;;;5.82;72.25
78016;BME280;67223;51.102;5.882;2023-04-15T03:27:22;100590.66;;;5.98;71.69
78016;BME280;67223;51.102;5.882;2023-04-15T03:29:47;100586.78;;;5.63;73.60
78016;BME280;67223;51.102;5.882;2023-04-15T03:32:13;100589.69;;;5.46;74.07
78016;BME280;67223;51.102;5.882;2023-04-15T03:34:39;100592.00;;;5.38;73.88
78016;BME280;67223;51.102;5.882;2023-04-15T03:37:05;100590.72;;;5.43;74.02
78016;BME280;67223;51.102;5.882;2023-04-15T03:39:31;100591.44;;;5.33;73.99
78016;BME280;67223;51.102;5.882;2023-04-15T03:41:57;100592.66;;;5.27;74.59
78016;BME280;67223;51.102;5.882;2023-04-15T03:44:25;100596.34;;;5.25;73.97
78016;BME280;67223;51.102;5.882;2023-04-15T03:46:50;100602.78;;;5.20;74.71
78016;BME280;67223;51.102;5.882;2023-04-15T03:49:16;100596.94;;;5.15;74.89
78016;BME280;67223;51.102;5.882;2023-04-15T03:51:41;100601.19;;;5.18;74.81
78016;BME280;67223;51.102;5.882;2023-04-15T03:54:06;100603.00;;;5.17;74.77
78016;BME280;67223;51.102;5.882;2023-04-15T03:56:32;100607.88;;;5.24;74.34
78016;BME280;67223;51.102;5.882;2023-04-15T03:58:57;100603.63;;;5.21;74.17
78016;BME280;67223;51.102;5.882;2023-04-15T04:01:23;100616.59;;;5.26;74.51
78016;BME280;67223;51.102;5.882;2023-04-15T04:03:48;100621.81;;;5.13;74.44
78016;BME280;67223;51.102;5.882;2023-04-15T04:06:14;100621.91;;;4.97;75.24
78016;BME280;67223;51.102;5.882;2023-04-15T04:08:39;100623.69;;;5.11;74.36
78016;BME280;67223;51.102;5.882;2023-04-15T04:11:05;100625.41;;;4.98;75.21
78016;BME280;67223;51.102;5.882;2023-04-15T04:13:31;100632.00;;;5.19;74.40
78016;BME280;67223;51.102;5.882;2023-04-15T04:15:56;100632.84;;;4.91;75.14
78016;BME280;67223;51.102;5.882;2023-04-15T04:18:22;100635.13;;;4.83;75.05
78016;BME280;67223;51.102;5.882;2023-04-15T04:20:47;100634.72;;;4.61;75.31
78016;BME280;67223;51.102;5.882;2023-04-15T04:23:14;100631.06;;;4.78;75.74
78016;BME280;67223;51.102;5.882;2023-04-15T04:25:40;100633.03;;;4.74;75.75
78016;BME280;67223;51.102;5.882;2023-04-15T04:28:05;100643.72;;;4.72;76.02
78016;BME280;67223;51.102;5.882;2023-04-15T04:30:31;100639.72;;;4.65;76.22
78016;BME280;67223;51.102;5.882;2023-04-15T04:32:56;100640.56;;;4.52;76.15
78016;BME280;67223;51.102;5.882;2023-04-15T04:35:22;100643.41;;;4.63;76.65
78016;BME280;67223;51.102;5.882;2023-04-15T04:37:47;100651.72;;;4.71;75.25
78016;BME280;67223;51.102;5.882;2023-04-15T04:40:13;100656.66;;;4.77;76.00
78016;BME280;67223;51.102;5.882;2023-04-15T04:42:38;100654.88;;;4.92;74.48
78016;BME280;67223;51.102;5.882;2023-04-15T04:45:07;100662.44;;;4.98;74.18
78016;BME280;67223;51.102;5.882;2023-04-15T04:47:32;100665.09;;;4.98;73.99
78016;BME280;67223;51.102;5.882;2023-04-15T04:49:58;100664.13;;;4.85;74.61
78016;BME280;67223;51.102;5.882;2023-04-15T04:52:23;100673.69;;;4.87;74.32
78016;BME280;67223;51.102;5.882;2023-04-15T04:54:49;100679.34;;;5.09;73.50
78016;BME280;67223;51.102;5.882;2023-04-15T04:57:14;100680.28;;;5.08;73.54
78016;BME280;67223;51.102;5.882;2023-04-15T04:59:40;100677.66;;;5.08;72.99
78016;BME280;67223;51.102;5.882;2023-04-15T05:02:05;100681.81;;;5.27;73.53
78016;BME280;67223;51.102;5.882;2023-04-15T05:04:31;100684.06;;;5.18;72.92
78016;BME280;67223;51.102;5.882;2023-04-15T05:06:57;100681.44;;;5.18;73.25
78016;BME280;67223;51.102;5.882;2023-04-15T05:09:23;100687.00;;;5.14;73.55
78016;BME280;67223;51.102;5.882;2023-04-15T05:11:49;100698.09;;;5.20;73.02
78016;BME280;67223;51.102;5.882;2023-04-15T05:14:14;100700.53;;;5.24;73.42
78016;BME280;67223;51.102;5.882;2023-04-15T05:16:39;100690.34;;;5.17;74.02
78016;BME280;67223;51.102;5.882;2023-04-15T05:19:05;100698.56;;;5.13;73.60
78016;BME280;67223;51.102;5.882;2023-04-15T05:21:31;100712.25;;;5.19;74.10
78016;BME280;67223;51.102;5.882;2023-04-15T05:23:57;100712.09;;;5.37;73.01
78016;BME280;67223;51.102;5.882;2023-04-15T05:26:23;100717.00;;;5.43;73.13
78016;BME280;67223;51.102;5.882;2023-04-15T05:28:49;100724.97;;;5.43;72.96
78016;BME280;67223;51.102;5.882;2023-04-15T05:31:15;100720.41;;;5.45;72.49
78016;BME280;67223;51.102;5.882;2023-04-15T05:33:40;100724.56;;;5.49;72.29
78016;BME280;67223;51.102;5.882;2023-04-15T05:36:06;100733.63;;;5.45;72.96
78016;BME280;67223;51.102;5.882;2023-04-15T05:38:32;100730.53;;;5.52;72.96
78016;BME280;67223;51.102;5.882;2023-04-15T05:40:57;100737.22;;;5.72;72.45
78016;BME280;67223;51.102;5.882;2023-04-15T05:43:23;100740.75;;;5.73;72.38
78016;BME280;67223;51.102;5.882;2023-04-15T05:45:48;100743.66;;;5.82;72.51
78016;BME280;67223;51.102;5.882;2023-04-15T05:48:14;100746.09;;;5.85;72.44
78016;BME280;67223;51.102;5.882;2023-04-15T05:50:42;100740.63;;;5.88;72.32
78016;BME280;67223;51.102;5.882;2023-04-15T05:53:10;100739.69;;;5.89;72.09
78016;BME280;67223;51.102;5.882;2023-04-15T05:55:35;100743.09;;;5.91;72.21
78016;BME280;67223;51.102;5.882;2023-04-15T05:58:01;100748.03;;;5.97;72.38
78016;BME280;67223;51.102;5.882;2023-04-15T06:00:27;100749.25;;;5.92;72.22
78016;BME280;67223;51.102;5.882;2023-04-15T06:02:53;100752.00;;;5.90;72.35
78016;BME280;67223;51.102;5.882;2023-04-15T06:05:18;100761.44;;;5.94;72.65
78016;BME280;67223;51.102;5.882;2023-04-15T06:07:44;100763.63;;;5.88;73.46
78016;BME280;67223;51.102;5.882;2023-04-15T06:10:10;100776.78;;;5.89;73.19
78016;BME280;67223;51.102;5.882;2023-04-15T06:12:36;100775.25;;;5.85;74.45
78016;BME280;67223;51.102;5.882;2023-04-15T06:15:01;100786.44;;;5.90;74.18
78016;BME280;67223;51.102;5.882;2023-04-15T06:17:28;100789.94;;;5.91;74.63
78016;BME280;67223;51.102;5.882;2023-04-15T06:19:53;100791.72;;;6.04;74.13
78016;BME280;67223;51.102;5.882;2023-04-15T06:22:26;100796.44;;;6.14;74.05
78016;BME280;67223;51.102;5.882;2023-04-15T06:24:51;100796.25;;;6.17;74.05
78016;BME280;67223;51.102;5.882;2023-04-15T06:27:17;100798.09;;;6.29;73.55
78016;BME280;67223;51.102;5.882;2023-04-15T06:29:43;100814.53;;;6.48;73.61
78016;BME280;67223;51.102;5.882;2023-04-15T06:32:09;100812.00;;;6.73;72.76
78016;BME280;67223;51.102;5.882;2023-04-15T06:34:35;100811.75;;;6.90;72.25
78016;BME280;67223;51.102;5.882;2023-04-15T06:37:00;100816.75;;;7.08;71.80
78016;BME280;67223;51.102;5.882;2023-04-15T06:39:26;100821.25;;;7.20;71.56
78016;BME280;67223;51.102;5.882;2023-04-15T06:41:51;100822.97;;;7.33;71.64
78016;BME280;67223;51.102;5.882;2023-04-15T06:44:17;100829.69;;;7.52;71.34
78016;BME280;67223;51.102;5.882;2023-04-15T06:46:43;100832.34;;;7.64;71.40
78016;BME280;67223;51.102;5.882;2023-04-15T06:49:09;100833.50;;;7.73;70.50
78016;BME280;67223;51.102;5.882;2023-04-15T06:51:35;100840.63;;;7.98;70.87
78016;BME280;67223;51.102;5.882;2023-04-15T06:54:01;100836.22;;;8.22;70.36
78016;BME280;67223;51.102;5.882;2023-04-15T06:56:30;100840.34;;;8.51;69.29
78016;BME280;67223;51.102;5.882;2023-04-15T06:58:55;100850.31;;;8.60;68.75
78016;BME280;67223;51.102;5.882;2023-04-15T07:01:21;100848.41;;;8.86;69.07
78016;BME280;67223;51.102;5.882;2023-04-15T07:03:47;100844.78;;;9.22;68.39
78016;BME280;67223;51.102;5.882;2023-04-15T07:06:12;100851.41;;;9.51;67.21
78016;BME280;67223;51.102;5.882;2023-04-15T07:08:38;100859.56;;;9.61;66.27
78016;BME280;67223;51.102;5.882;2023-04-15T07:11:04;100867.91;;;9.68;66.30
78016;BME280;67223;51.102;5.882;2023-04-15T07:13:30;100877.47;;;10.16;66.05
78016;BME280;67223;51.102;5.882;2023-04-15T07:15:56;100880.13;;;10.39;64.17
78016;BME280;67223;51.102;5.882;2023-04-15T07:18:21;100889.38;;;10.46;63.62
78016;BME280;67223;51.102;5.882;2023-04-15T07:20:47;100886.31;;;11.04;63.12
78016;BME280;67223;51.102;5.882;2023-04-15T07:23:12;100896.50;;;11.10;62.12
78016;BME280;67223;51.102;5.882;2023-04-15T07:25:38;100888.69;;;11.18;61.02
78016;BME280;67223;51.102;5.882;2023-04-15T07:28:03;100895.47;;;11.22;61.49
78016;BME280;67223;51.102;5.882;2023-04-15T07:30:29;100896.69;;;11.71;59.69
78016;BME280;67223;51.102;5.882;2023-04-15T07:32:54;100906.06;;;11.97;59.71
78016;BME280;67223;51.102;5.882;2023-04-15T07:35:20;100909.34;;;12.11;58.84
78016;BME280;67223;51.102;5.882;2023-04-15T07:37:47;100918.19;;;11.81;58.46
78016;BME280;67223;51.102;5.882;2023-04-15T07:40:12;100914.75;;;11.90;60.53
78016;BME280;67223;51.102;5.882;2023-04-15T07:42:38;100924.25;;;12.24;58.71
78016;BME280;67223;51.102;5.882;2023-04-15T07:45:04;100924.22;;;11.62;60.36
78016;BME280;67223;51.102;5.882;2023-04-15T07:47:31;100930.66;;;11.91;58.99
78016;BME280;67223;51.102;5.882;2023-04-15T07:49:56;100936.22;;;11.79;60.26
78016;BME280;67223;51.102;5.882;2023-04-15T07:52:21;100940.06;;;12.06;60.38
78016;BME280;67223;51.102;5.882;2023-04-15T07:54:47;100946.69;;;12.63;58.30
78016;BME280;67223;51.102;5.882;2023-04-15T07:57:12;100943.06;;;13.14;56.96
78016;BME280;67223;51.102;5.882;2023-04-15T07:59:38;100951.53;;;13.28;55.67
78016;BME280;67223;51.102;5.882;2023-04-15T08:02:03;100954.38;;;13.94;54.18
78016;BME280;67223;51.102;5.882;2023-04-15T08:04:28;100956.31;;;14.11;53.69
78016;BME280;67223;51.102;5.882;2023-04-15T08:06:54;100964.47;;;14.29;51.95
78016;BME280;67223;51.102;5.882;2023-04-15T08:09:19;100960.06;;;14.47;51.91
78016;BME280;67223;51.102;5.882;2023-04-15T08:11:47;100967.72;;;14.42;51.98
78016;BME280;67223;51.102;5.882;2023-04-15T08:14:13;100970.97;;;14.27;50.82
78016;BME280;67223;51.102;5.882;2023-04-15T08:16:38;100968.16;;;14.28;51.67
78016;BME280;67223;51.102;5.882;2023-04-15T08:19:04;100966.25;;;13.82;51.60
78016;BME280;67223;51.102;5.882;2023-04-15T08:21:29;100976.25;;;14.65;49.45
78016;BME280;67223;51.102;5.882;2023-04-15T08:23:55;100977.66;;;14.69;49.50
78016;BME280;67223;51.102;5.882;2023-04-15T08:26:20;100981.28;;;14.41;48.95
78016;BME280;67223;51.102;5.882;2023-04-15T08:28:46;100976.41;;;13.78;48.30
78016;BME280;67223;51.102;5.882;2023-04-15T08:31:16;100981.25;;;14.50;47.73
78016;BME280;67223;51.102;5.882;2023-04-15T08:33:42;100985.06;;;14.57;48.46
78016;BME280;67223;51.102;5.882;2023-04-15T08:36:07;100988.28;;;14.61;48.16
78016;BME280;67223;51.102;5.882;2023-04-15T08:38:33;100990.25;;;14.96;48.53
78016;BME280;67223;51.102;5.882;2023-04-15T08:41:02;100995.13;;;15.10;48.15
78016;BME280;67223;51.102;5.882;2023-04-15T08:43:33;100999.66;;;15.19;45.37
78016;BME280;67223;51.102;5.882;2023-04-15T08:45:59;101009.50;;;15.01;46.60
78016;BME280;67223;51.102;5.882;2023-04-15T08:48:28;101006.22;;;14.14;47.09
78016;BME280;67223;51.102;5.882;2023-04-15T08:50:54;101012.22;;;14.35;47.97
78016;BME280;67223;51.102;5.882;2023-04-15T08:53:19;101005.41;;;14.60;47.71
78016;BME280;67223;51.102;5.882;2023-04-15T08:55:50;101008.38;;;14.67;48.13
78016;BME280;67223;51.102;5.882;2023-04-15T08:58:16;101014.50;;;14.86;49.61
78016;BME280;67223;51.102;5.882;2023-04-15T09:00:43;101027.50;;;15.45;48.19
78016;BME280;67223;51.102;5.882;2023-04-15T09:03:08;101020.94;;;15.75;47.38
78016;BME280;67223;51.102;5.882;2023-04-15T09:05:35;101020.56;;;15.88;47.79
78016;BME280;67223;51.102;5.882;2023-04-15T09:08:02;101024.69;;;16.18;47.33
78016;BME280;67223;51.102;5.882;2023-04-15T09:10:28;101037.31;;;16.17;47.93
78016;BME280;67223;51.102;5.882;2023-04-15T09:12:54;101035.97;;;16.39;46.90
78016;BME280;67223;51.102;5.882;2023-04-15T09:15:20;101032.63;;;16.45;45.38
78016;BME280;67223;51.102;5.882;2023-04-15T09:17:45;101037.38;;;16.25;46.44
78016;BME280;67223;51.102;5.882;2023-04-15T09:20:12;101039.56;;;16.04;45.72
78016;BME280;67223;51.102;5.882;2023-04-15T09:22:39;101038.25;;;16.08;45.84
78016;BME280;67223;51.102;5.882;2023-04-15T09:25:25;101049.81;;;16.18;47.03
78016;BME280;67223;51.102;5.882;2023-04-15T09:27:56;101050.19;;;16.49;45.58
78016;BME280;67223;51.102;5.882;2023-04-15T09:30:22;101061.34;;;16.54;44.98
78016;BME280;67223;51.102;5.882;2023-04-15T09:33:06;101069.06;;;16.49;44.84
78016;BME280;67223;51.102;5.882;2023-04-15T09:35:33;101071.75;;;16.23;46.34
78016;BME280;67223;51.102;5.882;2023-04-15T09:38:07;101067.38;;;16.48;44.93
78016;BME280;67223;51.102;5.882;2023-04-15T09:40:40;101079.34;;;16.63;43.87
78016;BME280;67223;51.102;5.882;2023-04-15T09:43:07;101076.91;;;16.78;44.47
78016;BME280;67223;51.102;5.882;2023-04-15T09:45:34;101074.81;;;16.98;43.48
78016;BME280;67223;51.102;5.882;2023-04-15T09:48:21;101081.09;;;17.06;43.41
78016;BME280;67223;51.102;5.882;2023-04-15T09:50:48;101086.59;;;17.23;43.01
78016;BME280;67223;51.102;5.882;2023-04-15T09:53:20;101092.75;;;17.49;41.77
78016;BME280;67223;51.102;5.882;2023-04-15T09:55:54;101098.00;;;17.58;42.41
78016;BME280;67223;51.102;5.882;2023-04-15T09:58:23;101100.13;;;17.73;42.76
78016;BME280;67223;51.102;5.882;2023-04-15T10:00:50;101097.16;;;17.50;40.39
78016;BME280;67223;51.102;5.882;2023-04-15T10:03:24;101103.06;;;17.95;40.96
78016;BME280;67223;51.102;5.882;2023-04-15T10:05:51;101096.94;;;17.85;40.02
78016;BME280;67223;51.102;5.882;2023-04-15T10:08:21;101108.25;;;17.89;40.70
78016;BME280;67223;51.102;5.882;2023-04-15T10:10:48;101108.66;;;18.18;39.24
78016;BME280;67223;51.102;5.882;2023-04-15T10:13:16;101112.03;;;18.28;40.18
78016;BME280;67223;51.102;5.882;2023-04-15T10:15:44;101116.91;;;18.08;38.65
78016;BME280;67223;51.102;5.882;2023-04-15T10:18:15;101114.25;;;18.17;39.25
78016;BME280;67223;51.102;5.882;2023-04-15T10:20:43;101114.59;;;18.30;37.76
78016;BME280;67223;51.102;5.882;2023-04-15T10:23:09;101120.34;;;18.51;37.53
78016;BME280;67223;51.102;5.882;2023-04-15T10:25:36;101114.91;;;18.19;36.91
78016;BME280;67223;51.102;5.882;2023-04-15T10:28:02;101124.72;;;18.12;38.06
78016;BME280;67223;51.102;5.882;2023-04-15T10:30:30;101122.69;;;18.30;37.42
78016;BME280;67223;51.102;5.882;2023-04-15T10:32:57;101114.94;;;18.51;37.07
78016;BME280;67223;51.102;5.882;2023-04-15T10:35:22;101128.72;;;19.13;37.36
78016;BME280;67223;51.102;5.882;2023-04-15T10:37:48;101126.56;;;19.00;35.84
78016;BME280;67223;51.102;5.882;2023-04-15T10:40:30;101136.50;;;19.32;34.91
78016;BME280;67223;51.102;5.882;2023-04-15T10:42:58;101133.09;;;19.46;34.79
78016;BME280;67223;51.102;5.882;2023-04-15T10:45:33;101137.59;;;19.93;35.21
78016;BME280;67223;51.102;5.882;2023-04-15T10:48:02;101128.81;;;19.91;34.44
78016;BME280;67223;51.102;5.882;2023-04-15T10:50:30;101136.22;;;19.58;34.56
78016;BME280;67223;51.102;5.882;2023-04-15T10:52:56;101134.72;;;19.55;35.00
78016;BME280;67223;51.102;5.882;2023-04-15T10:55:32;101139.84;;;19.42;34.97
78016;BME280;67223;51.102;5.882;2023-04-15T10:57:59;101146.88;;;19.67;36.49
78016;BME280;67223;51.102;5.882;2023-04-15T11:00:28;101150.56;;;19.74;34.02
78016;BME280;67223;51.102;5.882;2023-04-15T11:02:54;101154.88;;;19.61;34.82
78016;BME280;67223;51.102;5.882;2023-04-15T11:05:22;101149.50;;;19.45;34.90
78016;BME280;67223;51.102;5.882;2023-04-15T11:08:08;101160.16;;;19.46;36.43
78016;BME280;67223;51.102;5.882;2023-04-15T11:15:39;101158.00;;;18.28;36.90
78016;BME280;67223;51.102;5.882;2023-04-15T11:18:09;101161.25;;;18.32;37.59
78016;BME280;67223;51.102;5.882;2023-04-15T11:20:36;101165.59;;;18.25;37.27
78016;BME280;67223;51.102;5.882;2023-04-15T11:23:02;101165.91;;;17.97;38.67
78016;BME280;67223;51.102;5.882;2023-04-15T11:25:29;101166.19;;;17.52;38.79
78016;BME280;67223;51.102;5.882;2023-04-15T11:27:55;101167.56;;;17.90;38.78
78016;BME280;67223;51.102;5.882;2023-04-15T11:30:23;101169.97;;;17.34;39.75
78016;BME280;67223;51.102;5.882;2023-04-15T11:32:54;101168.66;;;17.38;39.56
78016;BME280;67223;51.102;5.882;2023-04-15T11:35:19;101176.88;;;17.02;40.35
78016;BME280;67223;51.102;5.882;2023-04-15T11:37:47;101177.78;;;17.45;39.92
78016;BME280;67223;51.102;5.882;2023-04-15T11:40:21;101185.41;;;17.75;39.67
78016;BME280;67223;51.102;5.882;2023-04-15T11:45:47;101189.94;;;17.75;39.94
78016;BME280;67223;51.102;5.882;2023-04-15T11:48:13;101195.41;;;17.83;39.78
78016;BME280;67223;51.102;5.882;2023-04-15T11:50:39;101187.25;;;17.49;39.91
78016;BME280;67223;51.102;5.882;2023-04-15T11:53:06;101192.47;;;17.68;40.51
78016;BME280;67223;51.102;5.882;2023-04-15T11:55:49;101192.50;;;17.50;40.70
78016;BME280;67223;51.102;5.882;2023-04-15T11:58:17;101197.03;;;17.42;41.08
78016;BME280;67223;51.102;5.882;2023-04-15T12:00:51;101190.56;;;17.35;41.83
78016;BME280;67223;51.102;5.882;2023-04-15T12:03:22;101202.09;;;17.45;41.18
78016;BME280;67223;51.102;5.882;2023-04-15T12:11:48;101211.66;;;17.39;40.74
78016;BME280;67223;51.102;5.882;2023-04-15T12:14:30;101215.91;;;17.16;42.74
78016;BME280;67223;51.102;5.882;2023-04-15T12:16:57;101218.63;;;17.42;42.68
78016;BME280;67223;51.102;5.882;2023-04-15T12:19:34;101223.97;;;16.90;43.07
78016;BME280;67223;51.102;5.882;2023-04-15T12:22:04;101226.09;;;17.04;43.22
78016;BME280;67223;51.102;5.882;2023-04-15T12:24:34;101219.25;;;17.36;42.28
78016;BME280;67223;51.102;5.882;2023-04-15T12:27:10;101230.00;;;16.84;42.78
78016;BME280;67223;51.102;5.882;2023-04-15T12:29:38;101234.25;;;16.87;42.54
78016;BME280;67223;51.102;5.882;2023-04-15T12:32:09;101224.25;;;17.05;43.49
78016;BME280;67223;51.102;5.882;2023-04-15T12:34:40;101237.09;;;16.85;44.15
78016;BME280;67223;51.102;5.882;2023-04-15T12:37:09;101242.28;;;16.78;44.05
78016;BME280;67223;51.102;5.882;2023-04-15T12:39:37;101245.00;;;17.04;43.45
78016;BME280;67223;51.102;5.882;2023-04-15T12:42:04;101243.34;;;16.68;43.67
78016;BME280;67223;51.102;5.882;2023-04-15T12:44:30;101254.59;;;16.63;42.66
78016;BME280;67223;51.102;5.882;2023-04-15T12:46:57;101254.81;;;16.70;42.05
78016;BME280;67223;51.102;5.882;2023-04-15T12:49:24;101251.78;;;16.55;43.25
78016;BME280;67223;51.102;5.882;2023-04-15T12:51:54;101255.00;;;16.23;43.01
78016;BME280;67223;51.102;5.882;2023-04-15T12:54:20;101256.56;;;16.16;44.23
78016;BME280;67223;51.102;5.882;2023-04-15T12:56:47;101256.91;;;16.31;44.62
78016;BME280;67223;51.102;5.882;2023-04-15T12:59:13;101261.16;;;16.33;44.93
78016;BME280;67223;51.102;5.882;2023-04-15T13:01:39;101271.31;;;17.02;49.59
78016;BME280;67223;51.102;5.882;2023-04-15T13:04:05;101277.34;;;16.51;44.11
78016;BME280;67223;51.102;5.882;2023-04-15T13:06:31;101279.03;;;16.62;44.02
78016;BME280;67223;51.102;5.882;2023-04-15T13:08:59;101280.41;;;16.66;44.51